Kansas City, Missouri
Traffic Map
Current Weather Conditions
Kansas City, Missouri
Overcast Haze
Overcast

Feels Like: 4°
Wind Chill: Ceiling: 800
Heat Index: Visibility: 6mi
Dew Point: Wind: 6mph
Humidity: 89% Direction: 140° (SE)
Pressure: 29.62in Gusts: 0mph
Raw Report DataKMKC 221154Z 14005KT 6SM BR OVC008 06/04 A2962 RMK AO2 SLP032 60000 T00610044 10072 20061 56020
Traffic Incident Summary
Active as of:
Severity:
Category:
InformationThere was an issue retrieving the traffic information for this location. Please try a different location or try again shortly.
Advertisements
Track Severe Weather on mobile